Time;durP1;ratioP1;P1;durP2;ratioP2;P2;SDS_P1;SDS_P2;PMS_P1;PMS_P2;Temp;Humidity;BMP_temperature;BMP_pressure;BME280_temperature;BME280_humidity;BME280_pressure;Samples;Min_cycle;Max_cycle;Signal;HPM_P1;HPM_P2
2023/01/31 00:00:22;;;;;;;23.42;9.85;;;10.60;94.20;;;;;;5073184;28;20024;-63
2023/01/31 00:02:47;;;;;;;31.60;11.20;;;10.60;94.30;;;;;;5072984;28;20467;-60
2023/01/31 00:05:13;;;;;;;25.30;10.55;;;10.50;94.30;;;;;;5072766;28;20028;-60
2023/01/31 00:07:38;;;;;;;30.27;11.05;;;10.50;94.20;;;;;;5073018;28;20016;-60
2023/01/31 00:10:04;;;;;;;25.13;10.82;;;10.50;94.20;;;;;;5072615;28;20470;-60
2023/01/31 00:12:30;;;;;;;26.42;11.88;;;10.50;94.20;;;;;;5072805;28;20428;-61
2023/01/31 00:14:55;;;;;;;26.30;11.27;;;10.50;94.20;;;;;;5054889;28;20037;-60
2023/01/31 00:17:21;;;;;;;25.35;10.77;;;10.50;94.20;;;;;;5072814;28;20032;-60
2023/01/31 00:19:46;;;;;;;26.60;10.40;;;10.40;94.30;;;;;;5072735;28;20160;-60
2023/01/31 00:22:12;;;;;;;26.33;11.13;;;10.40;94.30;;;;;;5072908;28;20017;-60
2023/01/31 00:24:37;;;;;;;29.70;10.63;;;10.40;94.30;;;;;;5072273;28;20028;-59
2023/01/31 00:27:03;;;;;;;28.70;10.93;;;10.40;94.40;;;;;;5072328;28;20024;-60
2023/01/31 00:29:29;;;;;;;22.85;10.38;;;10.40;94.30;;;;;;5072728;28;20016;-60
2023/01/31 00:31:54;;;;;;;24.70;9.63;;;10.40;94.10;;;;;;5072720;28;20500;-60
2023/01/31 00:34:20;;;;;;;25.92;9.85;;;10.40;94.20;;;;;;5072751;28;20530;-63
2023/01/31 00:36:45;;;;;;;26.02;10.02;;;10.40;94.10;;;;;;5072216;28;20429;-60
2023/01/31 00:39:11;;;;;;;24.45;9.55;;;10.40;94.10;;;;;;5072394;28;20037;-61
2023/01/31 00:41:37;;;;;;;22.15;9.15;;;10.40;94.10;;;;;;5072274;28;20405;-60
2023/01/31 00:44:03;;;;;;;22.05;9.40;;;10.30;94.10;;;;;;5072587;28;20070;-60
2023/01/31 00:46:29;;;;;;;25.85;9.75;;;10.40;94.20;;;;;;5072457;28;20029;-60
2023/01/31 00:48:55;;;;;;;22.65;9.15;;;10.30;94.20;;;;;;5072582;28;20029;-60
2023/01/31 00:51:23;;;;;;;20.95;8.77;;;10.20;94.30;;;;;;5072489;28;20032;-61
2023/01/31 00:53:49;;;;;;;22.50;8.88;;;10.30;94.40;;;;;;5071483;28;20025;-60
2023/01/31 00:56:19;;;;;;;21.40;8.70;;;10.20;94.20;;;;;;5072188;28;20020;-60
2023/01/31 00:58:45;;;;;;;23.85;8.70;;;10.20;94.40;;;;;;5072465;28;20079;-59
2023/01/31 01:01:12;;;;;;;19.73;7.68;;;10.20;94.40;;;;;;5072290;28;20017;-60
2023/01/31 01:03:38;;;;;;;20.73;8.32;;;10.20;94.50;;;;;;5069043;28;20033;-60
2023/01/31 01:06:05;;;;;;;21.98;8.88;;;10.20;94.50;;;;;;5068185;28;20099;-60
2023/01/31 01:08:31;;;;;;;21.52;8.43;;;10.20;94.50;;;;;;5071330;28;20082;-60
2023/01/31 01:11:07;;;;;;;24.80;8.73;;;10.20;94.50;;;;;;5071821;28;20025;-60
2023/01/31 01:13:33;;;;;;;26.00;8.63;;;10.10;94.50;;;;;;5072431;28;20165;-60
2023/01/31 01:16:07;;;;;;;20.75;8.32;;;10.10;94.40;;;;;;5072025;28;20484;-60
2023/01/31 01:18:34;;;;;;;21.20;8.40;;;10.10;94.50;;;;;;5072046;28;20119;-65
2023/01/31 01:21:11;;;;;;;23.20;8.45;;;10.10;94.50;;;;;;5071807;28;20016;-64
2023/01/31 01:23:38;;;;;;;26.48;8.32;;;10.10;94.40;;;;;;5072422;28;20029;-61
2023/01/31 01:26:05;;;;;;;20.42;8.68;;;10.00;94.40;;;;;;5071795;28;20182;-61
2023/01/31 01:28:34;;;;;;;22.50;8.32;;;10.00;94.40;;;;;;5071965;28;20025;-60
2023/01/31 01:31:04;;;;;;;22.75;8.18;;;10.10;94.50;;;;;;5072377;28;20024;-60
2023/01/31 01:33:30;;;;;;;20.27;7.78;;;10.00;94.50;;;;;;5072133;28;20024;-60
2023/01/31 01:36:00;;;;;;;26.58;8.50;;;10.00;94.60;;;;;;5071662;28;20035;-60
2023/01/31 01:38:26;;;;;;;19.30;7.85;;;10.00;94.50;;;;;;5072078;28;20123;-60
2023/01/31 01:40:51;;;;;;;21.92;8.18;;;10.00;94.40;;;;;;5072351;28;20146;-59
2023/01/31 01:43:17;;;;;;;26.85;8.98;;;10.00;94.50;;;;;;5054209;28;20469;-59
2023/01/31 01:45:43;;;;;;;23.50;8.00;;;10.00;94.60;;;;;;5054140;28;20513;-60
2023/01/31 01:48:15;;;;;;;22.02;8.25;;;10.00;94.60;;;;;;5071771;28;20031;-60
2023/01/31 01:50:45;;;;;;;17.42;8.20;;;9.90;94.60;;;;;;5071879;28;20029;-60
2023/01/31 01:53:13;;;;;;;22.77;7.60;;;9.90;94.60;;;;;;5071868;28;20025;-61
2023/01/31 01:55:44;;;;;;;19.85;7.35;;;9.90;94.50;;;;;;5071775;28;20020;-61
2023/01/31 01:58:15;;;;;;;24.13;8.18;;;9.90;94.50;;;;;;5071826;28;20429;-62
2023/01/31 02:00:44;;;;;;;22.15;7.60;;;9.90;94.50;;;;;;5071824;28;20036;-60
2023/01/31 02:03:10;;;;;;;17.55;7.32;;;9.90;94.50;;;;;;5071925;28;20047;-60
2023/01/31 02:05:42;;;;;;;21.75;7.85;;;9.90;94.40;;;;;;5072384;28;20064;-60
2023/01/31 02:08:09;;;;;;;21.08;7.47;;;9.80;94.30;;;;;;5075290;28;20116;-60
2023/01/31 02:10:37;;;;;;;17.92;7.35;;;9.90;94.50;;;;;;5075518;28;20033;-60
2023/01/31 02:13:03;;;;;;;23.63;7.43;;;9.80;94.40;;;;;;5075098;28;20046;-65
2023/01/31 02:15:30;;;;;;;22.13;7.63;;;9.80;94.50;;;;;;5075205;28;20024;-60
2023/01/31 02:17:56;;;;;;;18.23;7.82;;;9.80;94.50;;;;;;5075039;28;20027;-60
2023/01/31 02:20:36;;;;;;;17.40;7.40;;;9.80;94.40;;;;;;5074938;28;20107;-60
2023/01/31 02:23:25;;;;;;;23.40;7.85;;;9.80;94.40;;;;;;5074954;28;20039;-60
2023/01/31 02:26:00;;;;;;;21.80;8.57;;;9.80;94.30;;;;;;5074303;28;20098;-59
2023/01/31 02:28:49;;;;;;;20.73;7.50;;;9.70;94.30;;;;;;5074906;28;20024;-60
2023/01/31 02:31:49;;;;;;;16.02;7.45;;;9.70;94.30;;;;;;5074715;28;20089;-60
2023/01/31 02:34:56;;;;;;;26.98;8.15;;;9.70;94.50;;;;;;5074586;28;20112;-59
2023/01/31 02:37:33;;;;;;;21.00;7.95;;;9.70;94.30;;;;;;4957127;28;20041;-62
2023/01/31 02:40:21;;;;;;;19.88;7.45;;;9.70;94.60;;;;;;5065928;28;20053;-64
2023/01/31 02:43:00;;;;;;;18.77;7.72;;;9.70;94.40;;;;;;5074405;28;20031;-65
2023/01/31 02:45:38;;;;;;;25.40;7.93;;;9.60;94.40;;;;;;5074839;28;20047;-63
2023/01/31 02:48:18;;;;;;;17.23;6.93;;;9.60;94.40;;;;;;5074237;28;20470;-61
2023/01/31 02:50:58;;;;;;;17.83;7.57;;;9.60;94.50;;;;;;5074291;28;20108;-61
2023/01/31 02:53:44;;;;;;;16.65;6.78;;;9.60;94.40;;;;;;5074367;28;20020;-60
2023/01/31 02:56:18;;;;;;;18.70;6.68;;;9.60;94.30;;;;;;5074578;28;20039;-61
2023/01/31 02:59:06;;;;;;;17.38;6.75;;;9.60;94.40;;;;;;5074221;28;20416;-60
2023/01/31 03:01:46;;;;;;;25.45;8.27;;;9.60;94.50;;;;;;5074399;28;20013;-59
2023/01/31 03:04:13;;;;;;;22.13;7.80;;;9.60;94.40;;;;;;5073837;28;20027;-60
2023/01/31 03:07:00;;;;;;;18.50;7.22;;;9.60;94.40;;;;;;5074122;28;20377;-60
2023/01/31 03:09:37;;;;;;;19.10;7.35;;;9.60;94.30;;;;;;5056512;28;20040;-59
2023/01/31 03:12:17;;;;;;;17.15;6.50;;;9.60;94.30;;;;;;5074025;28;20056;-60
2023/01/31 03:15:23;;;;;;;21.60;8.73;;;9.60;94.30;;;;;;5073937;28;20033;-60
2023/01/31 03:18:05;;;;;;;15.65;6.32;;;9.50;94.20;;;;;;5073151;28;20025;-62
2023/01/31 03:20:43;;;;;;;16.52;6.80;;;9.60;94.20;;;;;;5074022;28;20454;-60
2023/01/31 03:23:20;;;;;;;20.15;7.43;;;9.50;94.10;;;;;;5073915;28;20028;-59
2023/01/31 03:25:48;;;;;;;21.50;6.80;;;9.50;94.20;;;;;;5073761;28;20439;-62
2023/01/31 03:28:27;;;;;;;19.70;7.50;;;9.40;94.30;;;;;;5073593;28;20054;-59
2023/01/31 03:31:02;;;;;;;22.70;6.55;;;9.50;94.20;;;;;;5073590;28;20025;-60
2023/01/31 03:33:44;;;;;;;21.63;7.07;;;9.50;94.30;;;;;;5073394;28;20052;-60
2023/01/31 03:36:27;;;;;;;17.85;6.45;;;9.50;94.30;;;;;;5073769;28;20040;-60
2023/01/31 03:39:18;;;;;;;16.88;6.80;;;9.50;94.10;;;;;;5055426;28;20106;-60
2023/01/31 03:42:01;;;;;;;15.00;6.63;;;9.40;94.20;;;;;;5068692;28;20032;-59
2023/01/31 03:44:46;;;;;;;15.75;6.47;;;9.40;94.10;;;;;;5073440;28;20028;-59
2023/01/31 03:47:28;;;;;;;16.77;6.70;;;9.40;94.00;;;;;;5073139;28;20024;-59
2023/01/31 03:49:57;;;;;;;16.90;6.90;;;9.40;93.90;;;;;;5073340;28;20028;-60
2023/01/31 03:52:34;;;;;;;19.05;7.30;;;9.30;94.00;;;;;;5073432;28;20027;-60
2023/01/31 03:55:11;;;;;;;16.17;6.30;;;9.30;94.00;;;;;;5072997;28;20024;-60
2023/01/31 03:57:40;;;;;;;18.05;6.47;;;9.30;94.10;;;;;;5073220;28;20044;-60
2023/01/31 04:00:11;;;;;;;20.75;7.85;;;9.30;94.10;;;;;;5073105;28;20029;-60
2023/01/31 04:02:37;;;;;;;14.82;6.53;;;9.30;93.90;;;;;;5072989;28;20073;-60
2023/01/31 04:05:17;;;;;;;15.30;6.38;;;9.20;93.90;;;;;;5072942;28;20052;-60
2023/01/31 04:07:43;;;;;;;19.55;6.35;;;9.30;93.90;;;;;;5072844;28;20028;-59
2023/01/31 04:10:17;;;;;;;19.92;6.60;;;9.20;94.40;;;;;;5072869;28;20319;-60
2023/01/31 04:12:44;;;;;;;16.10;7.20;;;9.20;94.10;;;;;;5072889;28;20516;-60
2023/01/31 04:15:11;;;;;;;18.52;7.35;;;9.20;94.00;;;;;;5072494;28;20474;-60
2023/01/31 04:17:37;;;;;;;22.63;6.57;;;9.20;94.10;;;;;;5072840;28;20024;-59
2023/01/31 04:20:04;;;;;;;15.90;6.35;;;9.10;94.10;;;;;;5072636;28;20033;-60
2023/01/31 04:22:30;;;;;;;14.80;6.65;;;9.10;94.20;;;;;;5072843;28;20021;-59
2023/01/31 04:24:56;;;;;;;13.48;6.57;;;9.10;94.10;;;;;;5072659;28;20113;-59
2023/01/31 04:27:21;;;;;;;19.70;7.20;;;9.10;94.30;;;;;;5072351;28;20074;-60
2023/01/31 04:29:47;;;;;;;17.08;6.70;;;9.10;94.20;;;;;;5071760;28;20036;-65
2023/01/31 04:32:12;;;;;;;15.77;6.80;;;9.10;94.30;;;;;;5072591;28;20028;-60
2023/01/31 04:34:38;;;;;;;22.65;7.30;;;9.10;94.30;;;;;;5072695;28;20056;-60
2023/01/31 04:37:04;;;;;;;16.02;6.25;;;9.10;94.30;;;;;;5072760;28;20428;-59
2023/01/31 04:39:29;;;;;;;18.35;7.03;;;9.10;94.40;;;;;;5072510;28;20033;-59
2023/01/31 04:41:55;;;;;;;20.02;6.43;;;9.10;94.30;;;;;;5072582;28;20397;-61
2023/01/31 04:44:20;;;;;;;20.05;6.90;;;9.10;94.30;;;;;;5072090;28;20039;-60
2023/01/31 04:46:46;;;;;;;13.95;6.78;;;9.10;94.40;;;;;;5072457;28;20021;-60
2023/01/31 04:49:12;;;;;;;17.02;6.55;;;9.10;94.30;;;;;;5072354;28;20036;-59
2023/01/31 04:51:38;;;;;;;16.15;6.70;;;9.10;94.30;;;;;;5072446;28;20488;-60
2023/01/31 04:54:04;;;;;;;18.05;5.97;;;9.10;94.40;;;;;;5072564;28;20025;-62
2023/01/31 04:56:30;;;;;;;19.92;7.03;;;9.10;94.40;;;;;;5072279;28;20052;-60
2023/01/31 04:58:56;;;;;;;15.75;6.07;;;9.10;94.40;;;;;;5071974;28;20397;-63
2023/01/31 05:01:22;;;;;;;15.63;6.57;;;9.10;94.40;;;;;;5072188;28;20017;-60
2023/01/31 05:03:48;;;;;;;20.58;6.70;;;9.10;94.50;;;;;;5072670;28;20025;-59
2023/01/31 05:06:13;;;;;;;19.00;6.47;;;9.10;94.40;;;;;;5072187;28;20043;-63
2023/01/31 05:08:39;;;;;;;16.77;6.22;;;9.10;94.40;;;;;;5054486;28;20171;-60
2023/01/31 05:11:05;;;;;;;18.05;6.50;;;9.00;94.50;;;;;;5072294;28;20465;-59
2023/01/31 05:13:32;;;;;;;16.33;6.22;;;9.00;94.50;;;;;;5071964;28;20078;-59
2023/01/31 05:15:58;;;;;;;17.70;6.93;;;9.00;94.50;;;;;;5072675;28;20024;-59
2023/01/31 05:18:24;;;;;;;18.63;6.50;;;9.00;94.60;;;;;;5072035;28;20039;-59
2023/01/31 05:20:50;;;;;;;18.17;5.65;;;9.00;94.60;;;;;;5072025;28;20104;-59
2023/01/31 05:23:18;;;;;;;12.00;6.15;;;9.00;94.70;;;;;;5072274;28;20116;-59
2023/01/31 05:25:44;;;;;;;19.67;6.45;;;9.00;94.80;;;;;;5072113;28;20039;-60
2023/01/31 05:28:11;;;;;;;16.55;6.10;;;9.00;94.80;;;;;;5071680;28;20024;-60
2023/01/31 05:30:37;;;;;;;16.10;5.85;;;9.00;94.90;;;;;;5072097;28;20017;-59
2023/01/31 05:33:02;;;;;;;17.25;6.25;;;9.00;94.80;;;;;;5071978;28;20016;-60
2023/01/31 05:35:28;;;;;;;15.15;6.22;;;9.00;95.00;;;;;;5072010;28;20039;-59
2023/01/31 05:37:54;;;;;;;20.10;7.53;;;9.10;95.00;;;;;;5071647;28;20037;-59
2023/01/31 05:40:20;;;;;;;16.20;5.60;;;9.10;95.00;;;;;;5073438;28;20024;-60
2023/01/31 05:42:53;;;;;;;17.38;6.18;;;9.10;94.80;;;;;;5075476;28;20017;-61
2023/01/31 05:45:19;;;;;;;17.00;5.72;;;9.10;94.80;;;;;;5075865;28;20024;-62
2023/01/31 05:47:46;;;;;;;17.80;6.18;;;9.10;94.80;;;;;;5057365;28;20016;-60
2023/01/31 05:50:12;;;;;;;15.90;5.90;;;9.00;94.80;;;;;;5075637;28;20032;-60
2023/01/31 05:52:38;;;;;;;14.65;5.57;;;9.00;94.80;;;;;;5075309;28;20162;-60
2023/01/31 05:55:04;;;;;;;13.20;5.40;;;9.00;94.80;;;;;;5075668;28;20020;-59
2023/01/31 05:57:29;;;;;;;20.92;5.90;;;9.00;94.80;;;;;;5057134;28;20486;-59
2023/01/31 05:59:55;;;;;;;12.48;4.63;;;9.00;94.80;;;;;;5075458;28;20036;-59
2023/01/31 06:02:20;;;;;;;15.38;5.95;;;9.10;94.80;;;;;;5071590;28;20506;-60
2023/01/31 06:04:46;;;;;;;14.23;5.55;;;9.00;94.80;;;;;;5075267;28;20032;-59
2023/01/31 06:07:12;;;;;;;21.80;6.22;;;9.00;95.00;;;;;;5056464;28;20078;-60
2023/01/31 06:09:39;;;;;;;17.10;5.38;;;9.10;94.90;;;;;;5075308;28;20037;-59
2023/01/31 06:12:05;;;;;;;15.25;5.43;;;9.10;95.00;;;;;;5074658;28;20412;-60
2023/01/31 06:14:31;;;;;;;13.10;4.72;;;9.20;95.00;;;;;;5075061;28;20025;-59
2023/01/31 06:16:57;;;;;;;11.23;5.05;;;9.20;95.00;;;;;;5074936;28;20082;-60
2023/01/31 06:19:24;;;;;;;14.75;4.47;;;9.30;95.00;;;;;;5075043;28;20033;-60
2023/01/31 06:21:50;;;;;;;16.00;5.05;;;9.30;95.30;;;;;;5075265;28;20028;-60
2023/01/31 06:24:15;;;;;;;15.20;4.95;;;9.30;95.00;;;;;;5074841;28;20025;-60
2023/01/31 06:26:41;;;;;;;18.63;5.55;;;9.30;95.00;;;;;;5074379;28;20046;-60
2023/01/31 06:29:08;;;;;;;14.60;5.53;;;9.20;95.10;;;;;;5074739;28;20043;-60
2023/01/31 06:31:34;;;;;;;20.13;5.43;;;9.30;95.20;;;;;;5074870;28;20028;-60
2023/01/31 06:33:59;;;;;;;16.65;4.78;;;9.30;95.20;;;;;;5074628;28;20029;-62
2023/01/31 06:36:25;;;;;;;15.05;5.10;;;9.20;95.40;;;;;;5074774;28;20050;-66
2023/01/31 06:38:51;;;;;;;13.73;4.50;;;9.20;95.40;;;;;;5074589;28;20086;-59
2023/01/31 06:41:18;;;;;;;9.25;4.20;;;9.20;95.40;;;;;;5074759;28;20033;-59
2023/01/31 06:43:44;;;;;;;16.50;4.93;;;9.30;95.40;;;;;;5064381;28;20028;-61
2023/01/31 06:46:09;;;;;;;23.58;5.20;;;9.30;95.30;;;;;;5066700;28;20585;-59
2023/01/31 06:48:35;;;;;;;14.57;5.50;;;9.40;95.20;;;;;;5074161;28;20405;-67
2023/01/31 06:51:00;;;;;;;16.98;5.75;;;9.40;95.40;;;;;;5071002;28;20016;-59
2023/01/31 06:53:26;;;;;;;17.05;4.95;;;9.30;95.70;;;;;;5042772;28;20512;-58
2023/01/31 06:55:51;;;;;;;17.15;5.70;;;9.40;95.80;;;;;;5082257;28;20078;-59
2023/01/31 06:58:17;;;;;;;14.88;4.72;;;9.30;95.90;;;;;;5072843;28;20036;-59
2023/01/31 07:00:43;;;;;;;14.15;4.78;;;9.30;95.90;;;;;;5073393;28;20103;-59
2023/01/31 07:03:08;;;;;;;18.88;5.30;;;9.30;96.00;;;;;;5071107;28;20504;-59
2023/01/31 07:05:34;;;;;;;18.90;5.70;;;9.30;96.10;;;;;;5073226;28;20036;-61
2023/01/31 07:07:59;;;;;;;15.75;4.95;;;9.30;96.20;;;;;;5073831;28;20099;-59
2023/01/31 07:10:25;;;;;;;16.20;4.68;;;9.30;96.50;;;;;;5069235;28;20048;-59
2023/01/31 07:12:50;;;;;;;14.88;5.10;;;9.30;96.60;;;;;;5071761;28;20378;-60
2023/01/31 07:15:16;;;;;;;22.15;5.28;;;9.30;96.40;;;;;;5073489;28;20017;-59
2023/01/31 07:17:43;;;;;;;15.68;4.68;;;9.40;96.60;;;;;;5073947;28;20013;-59
2023/01/31 07:20:09;;;;;;;15.57;4.30;;;9.40;96.40;;;;;;5073754;28;20071;-59
2023/01/31 07:22:35;;;;;;;14.13;4.82;;;9.40;96.50;;;;;;5068738;28;20039;-60
2023/01/31 07:25:00;;;;;;;19.80;5.10;;;9.40;96.50;;;;;;5072132;28;20020;-58
2023/01/31 07:27:26;;;;;;;14.68;4.40;;;9.40;96.40;;;;;;5069307;28;20385;-63
2023/01/31 07:29:52;;;;;;;13.52;4.55;;;9.40;96.60;;;;;;5072902;28;20052;-66
2023/01/31 07:32:17;;;;;;;12.90;3.33;;;9.40;96.90;;;;;;5074161;28;20028;-60
2023/01/31 07:34:43;;;;;;;13.00;3.80;;;9.50;97.00;;;;;;5070337;28;20093;-59
2023/01/31 07:37:08;;;;;;;16.92;5.00;;;9.60;97.10;;;;;;5070634;28;20071;-61
2023/01/31 07:39:34;;;;;;;14.40;4.30;;;9.70;96.90;;;;;;5071756;28;20045;-60
2023/01/31 07:42:00;;;;;;;12.20;3.60;;;9.70;96.90;;;;;;5074401;28;20016;-60
2023/01/31 07:44:25;;;;;;;12.32;3.58;;;9.80;97.00;;;;;;5070676;28;20108;-59
2023/01/31 07:46:53;;;;;;;10.23;3.25;;;9.90;97.10;;;;;;5052044;28;20024;-59
2023/01/31 07:49:19;;;;;;;9.18;3.35;;;9.90;97.20;;;;;;5073370;28;20039;-62
2023/01/31 07:51:44;;;;;;;11.10;4.00;;;10.00;97.00;;;;;;5074736;28;20020;-60
2023/01/31 07:54:11;;;;;;;10.65;3.78;;;10.00;96.90;;;;;;5070961;28;20485;-63
2023/01/31 07:56:37;;;;;;;11.43;3.95;;;10.00;96.90;;;;;;5071361;28;20034;-61
2023/01/31 07:59:03;;;;;;;15.95;4.50;;;10.00;96.50;;;;;;5072531;28;20036;-60
2023/01/31 08:04:15;;;;;;;16.05;4.30;;;9.90;96.40;;;;;;5070120;28;20097;-73
2023/01/31 08:06:43;;;;;;;18.30;4.88;;;9.90;96.40;;;;;;5072803;28;20036;-59
2023/01/31 08:09:08;;;;;;;17.15;4.97;;;9.80;96.40;;;;;;5071393;28;20115;-67
2023/01/31 08:11:34;;;;;;;16.13;5.13;;;9.80;96.60;;;;;;5054450;28;20125;-60
2023/01/31 08:13:59;;;;;;;15.00;4.93;;;9.80;96.60;;;;;;5072541;28;20052;-68
2023/01/31 08:16:25;;;;;;;13.88;4.25;;;9.80;96.70;;;;;;5070258;28;20556;-59
2023/01/31 08:18:52;;;;;;;13.13;4.03;;;9.80;96.80;;;;;;5071802;28;20048;-59
2023/01/31 08:21:18;;;;;;;12.45;3.47;;;9.80;97.00;;;;;;5068990;28;20707;-59
2023/01/31 08:23:45;;;;;;;9.73;3.30;;;10.00;97.60;;;;;;5070922;28;20020;-59
2023/01/31 08:26:13;;;;;;;14.75;4.68;;;10.10;97.70;;;;;;5070900;28;20090;-64
2023/01/31 08:28:39;;;;;;;17.20;4.72;;;10.20;97.50;;;;;;5069822;28;20453;-61
2023/01/31 08:31:06;;;;;;;16.58;4.88;;;10.10;96.80;;;;;;5067684;28;20501;-60
2023/01/31 08:33:31;;;;;;;10.35;3.13;;;10.00;96.80;;;;;;5070072;28;20106;-59
2023/01/31 08:36:06;;;;;;;13.57;4.47;;;10.10;97.50;;;;;;5052498;28;20453;-59
2023/01/31 08:38:32;;;;;;;12.60;3.97;;;10.20;97.60;;;;;;5069621;28;20036;-58
2023/01/31 08:40:58;;;;;;;19.20;3.83;;;10.10;97.60;;;;;;5069054;28;20040;-58
2023/01/31 08:43:23;;;;;;;17.17;4.68;;;10.20;97.60;;;;;;5070378;28;20493;-58
2023/01/31 08:45:49;;;;;;;13.25;4.15;;;10.30;97.70;;;;;;5070806;28;20481;-58
2023/01/31 08:48:14;;;;;;;16.08;4.20;;;10.30;97.50;;;;;;5068710;28;20418;-60
2023/01/31 08:50:40;;;;;;;14.27;3.90;;;10.40;97.60;;;;;;5070560;28;20016;-59
2023/01/31 08:53:05;;;;;;;17.08;4.32;;;10.50;97.40;;;;;;5071290;28;20458;-59
2023/01/31 08:55:34;;;;;;;14.30;3.97;;;10.50;97.30;;;;;;5068752;28;20089;-58
2023/01/31 08:58:01;;;;;;;14.98;4.15;;;10.50;97.30;;;;;;5070736;28;20040;-60
2023/01/31 09:00:27;;;;;;;17.10;4.15;;;10.50;97.20;;;;;;5051401;28;20385;-60
2023/01/31 09:02:58;;;;;;;12.88;3.80;;;10.50;97.20;;;;;;5070773;28;20050;-59
2023/01/31 09:05:26;;;;;;;12.82;3.78;;;10.50;97.30;;;;;;5069505;28;20036;-60
2023/01/31 09:07:52;;;;;;;18.02;4.22;;;10.60;97.30;;;;;;5070127;28;20033;-61
2023/01/31 09:10:18;;;;;;;17.63;3.83;;;10.60;97.10;;;;;;5069695;28;20520;-59
2023/01/31 09:12:44;;;;;;;14.23;4.18;;;10.60;97.30;;;;;;5070358;28;20043;-59
2023/01/31 09:15:10;;;;;;;16.80;3.83;;;10.70;97.10;;;;;;5071675;28;20024;-60
2023/01/31 09:17:35;;;;;;;11.43;3.33;;;10.70;97.20;;;;;;5075533;28;20065;-60
2023/01/31 09:20:05;;;;;;;13.70;3.58;;;10.70;97.10;;;;;;5074844;28;20509;-60
2023/01/31 09:22:32;;;;;;;14.00;3.72;;;10.70;97.10;;;;;;5074751;28;20104;-59
2023/01/31 09:24:59;;;;;;;17.15;3.55;;;10.70;96.90;;;;;;5074494;28;20032;-59
2023/01/31 09:27:24;;;;;;;13.23;3.47;;;10.70;97.10;;;;;;5074860;28;20036;-62
2023/01/31 09:29:50;;;;;;;12.15;4.15;;;10.80;97.10;;;;;;5075025;28;20066;-60
2023/01/31 09:32:15;;;;;;;11.98;3.08;;;10.80;97.10;;;;;;5074182;28;20492;-60
2023/01/31 09:34:41;;;;;;;13.00;3.55;;;10.90;97.20;;;;;;5070445;28;20488;-61
2023/01/31 09:37:06;;;;;;;9.75;3.30;;;10.80;96.90;;;;;;5073981;28;20029;-60
2023/01/31 09:39:32;;;;;;;11.07;3.58;;;10.90;97.10;;;;;;5074462;28;20040;-60
2023/01/31 09:42:16;;;;;;;10.93;3.15;;;10.90;97.00;;;;;;5056451;28;20028;-61
2023/01/31 09:44:44;;;;;;;13.60;3.70;;;11.00;97.00;;;;;;5073200;28;20063;-59
2023/01/31 09:47:15;;;;;;;11.38;3.55;;;11.10;96.80;;;;;;5074398;28;20024;-65
2023/01/31 09:49:55;;;;;;;14.73;3.90;;;11.00;96.70;;;;;;5071986;28;20040;-61
2023/01/31 09:52:22;;;;;;;18.77;4.00;;;11.10;96.60;;;;;;5059747;28;20090;-59
2023/01/31 09:54:47;;;;;;;15.52;4.15;;;11.10;96.70;;;;;;5069987;28;20020;-60
2023/01/31 09:57:35;;;;;;;18.27;4.70;;;11.10;96.70;;;;;;5071152;28;20496;-60
2023/01/31 10:00:24;;;;;;;18.52;3.45;;;11.10;96.70;;;;;;5069177;28;20094;-60
2023/01/31 10:03:17;;;;;;;14.73;3.78;;;11.10;96.80;;;;;;5070923;28;20163;-60
2023/01/31 10:06:20;;;;;;;17.55;3.85;;;11.10;96.90;;;;;;5072435;28;20454;-60
2023/01/31 10:08:51;;;;;;;13.02;3.72;;;11.20;96.90;;;;;;4981658;28;20046;-59
2023/01/31 10:11:29;;;;;;;19.17;4.35;;;11.10;96.70;;;;;;5072403;28;20024;-61
2023/01/31 10:14:08;;;;;;;17.92;3.70;;;11.10;96.70;;;;;;5071179;28;20029;-60
2023/01/31 10:17:05;;;;;;;20.77;3.95;;;11.10;96.80;;;;;;5071208;28;20135;-60
2023/01/31 10:19:44;;;;;;;14.82;4.13;;;11.20;96.80;;;;;;5062643;28;20052;-61
2023/01/31 10:22:18;;;;;;;13.90;3.58;;;11.20;96.80;;;;;;5070823;28;20071;-60
2023/01/31 10:24:56;;;;;;;17.90;4.30;;;11.20;96.80;;;;;;5070166;28;20032;-60
2023/01/31 10:28:02;;;;;;;16.63;4.40;;;11.20;96.80;;;;;;5063670;28;20036;-61
2023/01/31 10:30:40;;;;;;;15.93;3.50;;;11.20;96.80;;;;;;5008762;28;20022;-60
2023/01/31 10:33:23;;;;;;;13.75;3.65;;;11.30;97.20;;;;;;5060294;28;20062;-62
2023/01/31 10:35:51;;;;;;;13.25;2.83;;;11.40;97.10;;;;;;5070194;28;20020;-62
2023/01/31 10:38:53;;;;;;;13.60;3.75;;;11.40;97.10;;;;;;5067991;28;20045;-62
2023/01/31 10:41:30;;;;;;;11.00;3.70;;;11.50;97.00;;;;;;5069406;28;20023;-64
2023/01/31 10:44:04;;;;;;;15.25;3.47;;;11.50;97.00;;;;;;5067267;28;20432;-60
2023/01/31 10:46:30;;;;;;;10.05;2.92;;;11.60;97.10;;;;;;5068833;28;20020;-60
2023/01/31 10:48:56;;;;;;;10.45;2.95;;;11.60;96.90;;;;;;5065049;28;20016;-62
2023/01/31 10:51:56;;;;;;;12.32;3.30;;;11.70;97.00;;;;;;5078504;28;20440;-63
2023/01/31 10:54:28;;;;;;;11.13;3.17;;;11.70;96.80;;;;;;5066280;28;20040;-61
2023/01/31 10:56:54;;;;;;;11.13;3.28;;;11.70;96.90;;;;;;5069337;28;20182;-61
2023/01/31 10:59:31;;;;;;;9.95;2.85;;;11.80;96.90;;;;;;5070850;28;20104;-60
2023/01/31 11:01:58;;;;;;;10.20;3.03;;;11.80;96.90;;;;;;5070726;28;20008;-59
2023/01/31 11:04:31;;;;;;;9.20;2.55;;;11.80;96.90;;;;;;5070389;28;20043;-60
2023/01/31 11:06:59;;;;;;;9.32;3.15;;;11.90;96.90;;;;;;5068423;28;20534;-58
2023/01/31 11:09:46;;;;;;;8.02;3.08;;;11.90;96.90;;;;;;5069305;28;20102;-61
2023/01/31 11:12:12;;;;;;;12.90;3.42;;;11.80;96.70;;;;;;5049368;28;20084;-59
2023/01/31 11:14:38;;;;;;;8.23;2.95;;;11.90;96.70;;;;;;5071598;28;20079;-60
2023/01/31 11:17:22;;;;;;;12.20;3.33;;;11.90;96.80;;;;;;5070564;28;20013;-61
2023/01/31 11:19:50;;;;;;;10.70;3.42;;;11.90;96.80;;;;;;5070203;28;20036;-61
2023/01/31 11:22:19;;;;;;;13.65;3.95;;;11.90;96.70;;;;;;5070137;28;20024;-61
2023/01/31 11:24:47;;;;;;;17.58;4.00;;;11.90;96.30;;;;;;5070033;28;20025;-60
2023/01/31 11:27:41;;;;;;;14.52;3.65;;;11.90;96.00;;;;;;5070151;28;20028;-59
2023/01/31 11:30:21;;;;;;;13.80;3.95;;;11.80;96.00;;;;;;5068467;28;20025;-57
2023/01/31 11:32:47;;;;;;;18.00;3.80;;;11.90;96.40;;;;;;5070239;28;20485;-58
2023/01/31 11:35:13;;;;;;;11.68;3.83;;;11.90;96.20;;;;;;5066446;28;20024;-60
2023/01/31 11:37:52;;;;;;;16.00;3.80;;;11.80;96.10;;;;;;5070310;28;20170;-60
2023/01/31 11:40:25;;;;;;;15.65;3.58;;;11.80;96.20;;;;;;5067868;28;21224;-61
2023/01/31 11:42:55;;;;;;;15.50;3.40;;;11.80;96.30;;;;;;5071326;28;20075;-60
2023/01/31 11:45:23;;;;;;;12.25;3.28;;;11.80;96.30;;;;;;5070379;28;20060;-60
2023/01/31 11:48:16;;;;;;;10.65;2.97;;;11.80;96.60;;;;;;5070829;28;20031;-59
2023/01/31 11:50:44;;;;;;;13.60;3.47;;;11.80;96.60;;;;;;5065471;28;20078;-62
2023/01/31 11:53:19;;;;;;;16.17;3.50;;;11.80;96.50;;;;;;5071354;28;20381;-60
2023/01/31 11:55:47;;;;;;;20.52;4.28;;;11.90;96.40;;;;;;5067559;28;20059;-60
2023/01/31 11:58:40;;;;;;;14.63;3.97;;;11.80;96.50;;;;;;5068520;28;20048;-60
2023/01/31 12:01:10;;;;;;;14.20;3.53;;;11.90;96.50;;;;;;5070900;28;20443;-63
2023/01/31 12:03:36;;;;;;;14.18;4.13;;;11.90;96.50;;;;;;5070487;28;20112;-60
2023/01/31 12:06:07;;;;;;;18.35;3.92;;;11.80;96.50;;;;;;5069363;28;20103;-61
2023/01/31 12:08:38;;;;;;;11.45;3.33;;;11.90;96.60;;;;;;5077069;28;20085;-60
2023/01/31 12:11:19;;;;;;;11.37;3.23;;;11.90;96.70;;;;;;5068928;28;20020;-62
2023/01/31 12:14:01;;;;;;;16.17;3.28;;;11.80;96.80;;;;;;5070083;28;20090;-62
2023/01/31 12:16:29;;;;;;;12.10;3.33;;;11.90;97.00;;;;;;5068776;28;20095;-68
2023/01/31 12:19:10;;;;;;;13.23;3.30;;;11.90;97.00;;;;;;5059360;28;20025;-62
2023/01/31 12:21:44;;;;;;;15.50;3.53;;;11.90;97.30;;;;;;5069093;28;20029;-64
2023/01/31 12:24:25;;;;;;;12.70;3.28;;;11.90;97.40;;;;;;5067698;28;20032;-60
2023/01/31 12:27:08;;;;;;;13.75;3.70;;;11.90;97.40;;;;;;5060240;28;20192;-60
2023/01/31 12:29:52;;;;;;;13.70;3.30;;;11.90;97.40;;;;;;5057958;28;20028;-63
2023/01/31 12:32:36;;;;;;;12.43;3.17;;;12.00;97.60;;;;;;5055674;28;20470;-64
2023/01/31 12:35:29;;;;;;;16.13;3.80;;;12.00;97.80;;;;;;5063631;28;20049;-71
2023/01/31 12:38:10;;;;;;;;;;;12.00;98.00;;;;;;5065913;28;20439;-60
2023/01/31 12:40:57;;;;;;;11.05;3.30;;;12.00;98.30;;;;;;5068939;28;20325;-60
2023/01/31 12:43:48;;;;;;;14.95;3.75;;;12.00;98.60;;;;;;5065087;28;20154;-60
2023/01/31 12:46:31;;;;;;;14.45;3.55;;;12.10;99.00;;;;;;5068946;28;20031;-61
2023/01/31 12:49:15;;;;;;;13.23;3.63;;;12.10;99.10;;;;;;5060637;28;20032;-60
2023/01/31 12:52:06;;;;;;;11.40;3.30;;;12.00;99.40;;;;;;5065890;28;20448;-64
2023/01/31 12:54:39;;;;;;;17.63;3.67;;;12.10;99.50;;;;;;5061555;28;20052;-59
2023/01/31 12:57:32;;;;;;;15.20;3.65;;;12.10;99.50;;;;;;5067166;28;20093;-60
2023/01/31 13:00:44;;;;;;;12.00;3.15;;;12.10;99.50;;;;;;5069595;28;20033;-59
2023/01/31 13:03:31;;;;;;;13.10;3.88;;;12.10;99.50;;;;;;5054880;28;20036;-59
2023/01/31 13:06:02;;;;;;;11.27;3.50;;;12.10;99.70;;;;;;5067465;28;20634;-62